Craig Municipal Airport Jacksonville US
ICAO: KCRG
IATA: CRG
Category: Medium
Scheduled Services: No

Elevation: 41 ft
TransAlt. 18000 ft.

Airport Communications:
JACKSONVILLE APP:124.9
ATIS:125.4
CLNC DEL:118.35
CTAF:132.1
JACKSONVILLE DEP:118
GND:121.8
GAINESVILLE RDO:122.2
TWR:132.1
UNICOM:122.95

KCRG Zoom In..

If you have problems with the map follow the link
https://www.worldairports.se/pages/airport.php?
ICAO=KCRG

Runways:

(A) RW 05 length 4004 ft width 100 ft
---- / hdg 51

(B) RW 14 length 4008 ft width 100 ft
---- / hdg 141

(C) RW 23 length 4004 ft width 100 ft
---- / hdg 231

(D) RW 32 length 4008 ft width 100 ft
ILS 111.70 / hdg 321

Location; KCRG
Day. 22 / Time. 11.53 Zulu
* Altimeter: 30.19
* Temperature: 14° c. 57.2°f.
* Wind from: 320° Speed 07 kn.
Dewpoint: 13° c.
Visibility: 10 Statute Miles.
Clouds: Scattered 4900 ft.

KCRG 221153Z 32007KT 10SM SCT049 14/13 A3019 RMK AO2 SLP223 T01440128 10194 20144 53014


Wind From 320°
Speed 07 kn.

 
 
jpsmedia.com for Web Design worldairports.se 2018   terms of use